createdAt,value
2023-05-05T00:07:59.461Z,28.70
2023-05-05T00:18:03.117Z,27.20
2023-05-05T00:28:06.821Z,29.50
2023-05-05T00:38:10.372Z,31.50
2023-05-05T00:48:16.118Z,26.10
2023-05-05T00:58:19.893Z,26.60
2023-05-05T01:08:27.067Z,25.00
2023-05-05T01:18:34.831Z,20.30
2023-05-05T01:28:53.184Z,20.60
2023-05-05T01:38:57.628Z,23.20
2023-05-05T01:49:02.325Z,26.40
2023-05-05T01:59:06.544Z,17.80
2023-05-05T02:09:13.184Z,21.60
2023-05-05T02:19:19.241Z,20.70
2023-05-05T02:29:22.688Z,28.30
2023-05-05T02:39:30.759Z,31.80
2023-05-05T02:49:34.316Z,38.60
2023-05-05T02:59:49.254Z,38.80
2023-05-05T03:09:55.870Z,26.90
2023-05-05T03:20:02.287Z,31.40
2023-05-05T03:30:09.165Z,31.60
2023-05-05T03:40:14.119Z,30.10
2023-05-05T03:50:17.128Z,24.50
2023-05-05T04:00:19.879Z,22.80
2023-05-05T04:10:24.129Z,19.00
2023-05-05T04:20:27.776Z,24.80
2023-05-05T04:30:31.400Z,43.10
2023-05-05T04:40:38.999Z,70.30
2023-05-05T04:50:42.738Z,50.80
2023-05-05T05:00:47.168Z,141.30
2023-05-05T05:10:51.521Z,102.50
2023-05-05T05:20:55.667Z,63.80
2023-05-05T05:30:59.984Z,28.30
2023-05-05T05:41:06.186Z,18.90
2023-05-05T05:51:09.778Z,23.00
2023-05-05T06:01:13.585Z,25.70
2023-05-05T06:11:17.209Z,22.70
2023-05-05T06:21:21.117Z,10.00
2023-05-05T06:31:25.346Z,8.80
2023-05-05T06:41:29.375Z,13.90
2023-05-05T06:51:33.103Z,7.50
2023-05-05T07:01:36.720Z,11.80
2023-05-05T07:11:40.425Z,13.40
2023-05-05T07:21:44.122Z,5.80
2023-05-05T07:31:47.834Z,10.10
2023-05-05T07:41:51.743Z,8.30
2023-05-05T07:51:56.047Z,7.40
2023-05-05T08:01:59.610Z,4.90
2023-05-05T08:12:03.918Z,7.50
2023-05-05T08:22:07.618Z,3.50
2023-05-05T08:32:11.524Z,10.20
2023-05-05T08:42:25.423Z,4.00
2023-05-05T08:52:38.055Z,6.80
2023-05-05T09:02:42.456Z,5.60
2023-05-05T09:12:46.601Z,5.10
2023-05-05T09:22:50.559Z,4.50
2023-05-05T09:32:55.813Z,14.60
2023-05-05T09:43:01.965Z,3.30
2023-05-05T09:53:06.677Z,5.70
2023-05-05T10:03:10.397Z,9.00
2023-05-05T10:13:15.471Z,5.20
2023-05-05T10:23:22.523Z,2.60
2023-05-05T10:33:32.243Z,4.30
2023-05-05T10:43:37.443Z,5.00
2023-05-05T10:53:44.474Z,3.80
2023-05-05T11:03:49.416Z,5.40
2023-05-05T11:14:25.483Z,5.10
2023-05-05T11:24:29.246Z,4.60
2023-05-05T11:34:33.057Z,4.30
2023-05-05T11:44:37.728Z,2.90
2023-05-05T11:54:47.280Z,2.70
2023-05-05T12:04:52.399Z,2.50
2023-05-05T12:14:56.180Z,3.30
2023-05-05T12:25:02.052Z,3.60
2023-05-05T12:35:08.090Z,3.80
2023-05-05T12:45:17.614Z,3.00
2023-05-05T12:55:21.480Z,5.70
2023-05-05T13:05:31.273Z,5.10
2023-05-05T13:15:36.044Z,7.50
2023-05-05T13:25:39.948Z,8.60
2023-05-05T13:35:43.987Z,7.20
2023-05-05T13:45:47.666Z,7.10
2023-05-05T13:55:51.386Z,3.00
2023-05-05T14:05:55.050Z,5.40
2023-05-05T14:15:58.834Z,4.90
2023-05-05T14:26:03.040Z,3.30
2023-05-05T14:36:07.007Z,3.60
2023-05-05T14:46:11.631Z,5.20
2023-05-05T14:56:15.599Z,4.60
2023-05-05T15:06:20.104Z,3.50
2023-05-05T15:16:23.825Z,7.20
2023-05-05T15:26:30.707Z,5.00
2023-05-05T15:36:34.116Z,3.80
2023-05-05T15:56:42.491Z,4.60
2023-05-05T16:06:46.547Z,2.70
2023-05-05T16:16:50.219Z,3.60
2023-05-05T16:26:54.328Z,2.00
2023-05-05T16:36:58.303Z,4.90
2023-05-05T16:47:04.168Z,8.10
2023-05-05T16:57:12.289Z,4.30
2023-05-05T17:07:16.018Z,4.50
2023-05-05T17:17:20.297Z,8.60
2023-05-05T17:27:24.521Z,4.50
2023-05-05T17:37:28.825Z,6.90
2023-05-05T17:47:32.776Z,11.80
2023-05-05T17:57:36.655Z,7.50
2023-05-05T18:07:40.769Z,8.50
2023-05-05T18:17:44.544Z,8.30
2023-05-05T18:27:51.722Z,13.90
2023-05-05T18:37:55.721Z,13.10
2023-05-05T18:47:59.524Z,25.90
2023-05-05T18:58:03.277Z,22.90
2023-05-05T19:08:10.731Z,8.50
2023-05-05T19:18:14.359Z,7.00
2023-05-05T19:28:18.344Z,8.90
2023-05-05T19:38:22.191Z,8.80
2023-05-05T19:48:26.341Z,9.90
2023-05-05T19:58:30.981Z,13.10
2023-05-05T20:08:34.549Z,10.50
2023-05-05T20:18:38.037Z,7.90
2023-05-05T20:28:44.768Z,9.70
2023-05-05T20:38:49.422Z,7.90
2023-05-05T20:48:53.336Z,13.50
2023-05-05T20:58:56.634Z,9.40
2023-05-05T21:09:04.950Z,11.60
2023-05-05T21:19:08.871Z,10.60
2023-05-05T21:29:13.158Z,8.40
2023-05-05T21:39:16.788Z,11.10
2023-05-05T21:49:20.308Z,9.10
2023-05-05T21:59:27.761Z,9.10
2023-05-05T22:09:31.926Z,9.30
2023-05-05T22:19:36.259Z,9.70
2023-05-05T22:29:40.500Z,9.40
2023-05-05T22:39:44.355Z,11.60
2023-05-05T22:49:48.171Z,11.00
2023-05-05T22:59:52.413Z,11.50
2023-05-05T23:09:56.142Z,13.00
2023-05-05T23:20:01.927Z,10.70
2023-05-05T23:30:07.278Z,9.90
2023-05-05T23:40:10.986Z,13.40
2023-05-05T23:50:14.543Z,11.10
